createdAt,value
2018-12-09T00:00:51.632Z,0.80
2018-12-09T00:03:20.158Z,1.10
2018-12-09T00:05:48.775Z,0.70
2018-12-09T00:08:17.462Z,0.90
2018-12-09T00:10:47.062Z,0.40
2018-12-09T00:13:15.512Z,0.80
2018-12-09T00:15:44.037Z,0.90
2018-12-09T00:23:10.526Z,0.70
2018-12-09T00:25:38.971Z,0.90
2018-12-09T00:28:07.516Z,0.60
2018-12-09T00:30:36.085Z,1.20
2018-12-09T00:33:04.775Z,1.00
2018-12-09T00:35:33.410Z,1.57
2018-12-09T00:38:02.054Z,0.70
2018-12-09T00:40:30.556Z,0.97
2018-12-09T00:42:59.048Z,1.03
2018-12-09T00:45:27.635Z,0.90
2018-12-09T00:47:56.109Z,0.80
2018-12-09T00:50:24.739Z,0.90
2018-12-09T00:52:53.337Z,0.83
2018-12-09T00:55:21.880Z,1.33
2018-12-09T00:57:50.544Z,1.20
2018-12-09T01:00:19.333Z,1.20
2018-12-09T01:02:47.767Z,1.00
2018-12-09T01:05:16.709Z,0.80
2018-12-09T01:07:45.751Z,0.90
2018-12-09T01:10:14.192Z,0.80
2018-12-09T01:12:42.779Z,1.10
2018-12-09T01:15:11.916Z,1.00
2018-12-09T01:17:40.346Z,1.07
2018-12-09T01:20:08.973Z,0.97
2018-12-09T01:22:37.516Z,0.80
2018-12-09T01:25:06.326Z,0.70
2018-12-09T01:27:35.347Z,0.70
2018-12-09T01:30:04.548Z,0.97
2018-12-09T01:32:33.164Z,1.00
2018-12-09T01:35:01.606Z,0.93
2018-12-09T01:37:30.069Z,1.10
2018-12-09T01:39:58.522Z,0.93
2018-12-09T01:42:26.949Z,0.80
2018-12-09T01:44:55.540Z,0.90
2018-12-09T01:47:24.020Z,1.37
2018-12-09T01:49:52.784Z,0.80
2018-12-09T01:52:21.228Z,1.20
2018-12-09T01:54:49.674Z,1.10
2018-12-09T01:57:18.129Z,1.60
2018-12-09T01:59:47.757Z,0.83
2018-12-09T02:02:16.426Z,1.20
2018-12-09T02:04:44.848Z,1.77
2018-12-09T02:07:13.305Z,1.17
2018-12-09T02:09:41.774Z,1.10
2018-12-09T02:12:10.258Z,1.67
2018-12-09T02:14:39.227Z,1.80
2018-12-09T02:17:07.832Z,1.20
2018-12-09T02:19:36.361Z,1.67
2018-12-09T02:22:05.432Z,1.50
2018-12-09T02:24:33.981Z,1.13
2018-12-09T02:27:02.458Z,1.10
2018-12-09T02:29:30.915Z,1.10
2018-12-09T02:31:59.412Z,1.10
2018-12-09T02:34:27.903Z,1.43
2018-12-09T02:36:56.340Z,0.97
2018-12-09T02:39:24.922Z,1.43
2018-12-09T02:41:53.545Z,1.63
2018-12-09T02:44:22.420Z,1.33
2018-12-09T02:46:50.898Z,1.70
2018-12-09T02:49:19.468Z,1.40
2018-12-09T02:51:48.055Z,1.50
2018-12-09T02:54:16.650Z,1.50
2018-12-09T02:56:45.118Z,1.23
2018-12-09T02:59:13.653Z,1.40
2018-12-09T03:01:42.705Z,1.70
2018-12-09T03:04:11.272Z,1.60
2018-12-09T03:06:40.153Z,2.03
2018-12-09T03:09:10.875Z,2.07
2018-12-09T03:11:40.089Z,2.10
2018-12-09T03:14:08.649Z,1.90
2018-12-09T03:16:37.129Z,2.00
2018-12-09T03:19:05.631Z,2.03
2018-12-09T03:21:34.089Z,2.00
2018-12-09T03:24:02.814Z,2.10
2018-12-09T03:26:31.609Z,1.63
2018-12-09T03:29:00.577Z,2.47
2018-12-09T03:31:29.102Z,1.73
2018-12-09T03:33:57.599Z,1.47
2018-12-09T03:36:26.038Z,1.60
2018-12-09T03:38:54.484Z,1.63
2018-12-09T03:41:23.537Z,1.10
2018-12-09T03:43:52.104Z,1.80
2018-12-09T03:46:20.574Z,1.47
2018-12-09T03:48:49.000Z,1.23
2018-12-09T03:51:18.023Z,1.77
2018-12-09T03:53:46.499Z,1.53
2018-12-09T03:56:14.941Z,1.70
2018-12-09T03:58:43.456Z,1.47
2018-12-09T04:01:11.926Z,1.70
2018-12-09T04:03:40.343Z,1.97
2018-12-09T04:06:09.881Z,2.20
2018-12-09T04:08:38.917Z,1.70
2018-12-09T04:11:07.412Z,2.00
2018-12-09T04:13:35.846Z,1.80
2018-12-09T04:16:04.451Z,2.43
2018-12-09T04:18:32.939Z,2.00
2018-12-09T04:21:01.352Z,2.17
2018-12-09T04:23:29.879Z,2.17
2018-12-09T04:25:58.902Z,2.60
2018-12-09T04:28:27.508Z,1.90
2018-12-09T04:30:55.946Z,2.33
2018-12-09T04:33:24.366Z,2.40
2018-12-09T04:35:52.861Z,2.77
2018-12-09T04:38:21.350Z,2.23
2018-12-09T04:40:49.835Z,1.97
2018-12-09T04:43:18.280Z,1.83
2018-12-09T04:45:46.720Z,2.00
2018-12-09T04:48:15.164Z,2.10
2018-12-09T04:50:43.598Z,2.10
2018-12-09T04:53:12.096Z,2.60
2018-12-09T04:55:40.658Z,2.50
2018-12-09T04:58:09.281Z,2.60
2018-12-09T05:00:49.400Z,2.43
2018-12-09T05:03:17.829Z,2.60
2018-12-09T05:05:46.337Z,2.33
2018-12-09T05:08:14.893Z,3.03
2018-12-09T05:10:43.726Z,2.50
2018-12-09T05:13:12.762Z,2.90
2018-12-09T05:15:41.214Z,3.03
2018-12-09T05:18:10.277Z,3.10
2018-12-09T05:20:38.712Z,2.87
2018-12-09T05:23:08.214Z,2.87
2018-12-09T05:25:36.659Z,3.10
2018-12-09T05:28:05.168Z,3.03
2018-12-09T05:30:33.726Z,3.40
2018-12-09T05:33:04.090Z,2.90
2018-12-09T05:35:33.212Z,2.70
2018-12-09T05:38:01.795Z,2.47
2018-12-09T05:40:31.190Z,2.90
2018-12-09T05:42:59.654Z,1.73
2018-12-09T05:45:28.412Z,2.10
2018-12-09T05:47:56.829Z,1.57
2018-12-09T05:50:25.289Z,1.63
2018-12-09T05:52:53.741Z,1.40
2018-12-09T05:55:23.168Z,0.93
2018-12-09T05:57:51.696Z,1.40
2018-12-09T06:00:20.257Z,0.90
2018-12-09T06:05:30.233Z,1.00
2018-12-09T06:07:58.684Z,0.80
2018-12-09T06:10:27.214Z,0.90
2018-12-09T06:12:55.750Z,0.63
2018-12-09T06:15:24.395Z,0.80
2018-12-09T06:17:52.951Z,0.63
2018-12-09T06:20:21.671Z,1.30
2018-12-09T06:22:50.127Z,0.80
2018-12-09T06:25:18.974Z,0.90
2018-12-09T06:27:47.642Z,0.90
2018-12-09T06:30:16.512Z,0.70
2018-12-09T06:32:45.097Z,0.90
2018-12-09T06:35:13.553Z,1.10
2018-12-09T06:37:42.004Z,1.03
2018-12-09T06:40:10.536Z,1.03
2018-12-09T06:42:39.094Z,1.37
2018-12-09T06:45:07.774Z,1.23
2018-12-09T06:47:36.221Z,1.07
2018-12-09T06:50:06.878Z,1.50
2018-12-09T06:52:35.448Z,1.37
2018-12-09T06:55:04.108Z,1.57
2018-12-09T06:57:32.571Z,1.80
2018-12-09T07:00:01.016Z,1.40
2018-12-09T07:02:29.657Z,1.50
2018-12-09T07:04:58.091Z,1.80
2018-12-09T07:07:27.592Z,1.80
2018-12-09T07:09:56.353Z,1.60
2018-12-09T07:12:25.091Z,1.73
2018-12-09T07:14:53.729Z,1.40
2018-12-09T07:17:22.238Z,1.40
2018-12-09T07:19:50.747Z,1.47
2018-12-09T07:22:19.316Z,2.93
2018-12-09T07:24:47.772Z,1.60
2018-12-09T07:27:16.214Z,2.10
2018-12-09T07:29:44.695Z,4.07
2018-12-09T07:32:13.126Z,1.33
2018-12-09T07:34:41.625Z,2.20
2018-12-09T07:37:10.097Z,2.13
2018-12-09T07:39:38.560Z,2.23
2018-12-09T07:42:07.008Z,2.00
2018-12-09T07:44:35.496Z,4.13
2018-12-09T07:47:04.450Z,1.87
2018-12-09T07:49:32.915Z,1.73
2018-12-09T07:52:01.447Z,2.00
2018-12-09T07:54:29.913Z,2.07
2018-12-09T07:56:58.483Z,1.80
2018-12-09T07:59:26.932Z,2.83
2018-12-09T08:01:55.381Z,2.47
2018-12-09T08:04:23.826Z,2.77
2018-12-09T08:06:52.282Z,1.90
2018-12-09T08:09:20.721Z,2.53
2018-12-09T08:11:49.225Z,3.63
2018-12-09T08:14:17.666Z,2.53
2018-12-09T08:16:46.163Z,3.08
2018-12-09T08:19:14.634Z,2.50
2018-12-09T08:21:43.077Z,3.50
2018-12-09T08:24:11.566Z,2.80
2018-12-09T08:26:40.035Z,2.90
2018-12-09T08:29:08.501Z,3.10
2018-12-09T08:31:36.996Z,2.23
2018-12-09T08:34:05.597Z,2.33
2018-12-09T08:36:34.090Z,2.07
2018-12-09T08:39:02.616Z,3.40
2018-12-09T08:41:31.054Z,2.77
2018-12-09T08:43:59.482Z,2.80
2018-12-09T08:46:28.044Z,2.20
2018-12-09T08:48:56.472Z,2.27
2018-12-09T08:51:25.069Z,2.77
2018-12-09T08:53:53.537Z,2.07
2018-12-09T08:56:22.010Z,2.23
2018-12-09T08:58:50.544Z,2.00
2018-12-09T09:01:19.256Z,1.93
2018-12-09T09:03:47.740Z,2.17
2018-12-09T09:06:16.308Z,2.13
2018-12-09T09:08:50.999Z,2.10
2018-12-09T09:11:19.545Z,2.00
2018-12-09T09:13:48.092Z,2.20
2018-12-09T09:16:16.684Z,2.43
2018-12-09T09:18:45.688Z,2.63
2018-12-09T09:21:14.129Z,5.83
2018-12-09T09:23:42.564Z,8.93
2018-12-09T09:26:11.375Z,3.17
2018-12-09T09:28:39.847Z,4.63
2018-12-09T09:31:08.429Z,6.67
2018-12-09T09:33:36.979Z,4.67
2018-12-09T09:36:06.189Z,3.10
2018-12-09T09:38:34.778Z,2.90
2018-12-09T09:41:03.393Z,2.57
2018-12-09T09:43:32.175Z,3.30
2018-12-09T09:46:00.625Z,2.50
2018-12-09T09:48:29.075Z,2.67
2018-12-09T09:50:57.531Z,2.73
2018-12-09T09:53:26.143Z,2.50
2018-12-09T09:55:54.802Z,4.23
2018-12-09T09:58:23.230Z,4.47
2018-12-09T10:00:51.735Z,4.00
2018-12-09T10:03:25.893Z,4.73
2018-12-09T10:05:50.758Z,2.77
2018-12-09T10:08:19.802Z,3.70
2018-12-09T10:10:48.313Z,3.63
2018-12-09T10:13:16.813Z,3.00
2018-12-09T10:15:45.278Z,2.60
2018-12-09T10:18:13.949Z,2.87
2018-12-09T10:20:42.430Z,2.67
2018-12-09T10:23:10.892Z,2.10
2018-12-09T10:25:39.486Z,2.30
2018-12-09T10:28:08.036Z,2.20
2018-12-09T10:30:36.777Z,2.03
2018-12-09T10:33:05.357Z,2.47
2018-12-09T10:35:33.819Z,1.93
2018-12-09T10:38:02.429Z,1.90
2018-12-09T10:40:30.866Z,3.13
2018-12-09T10:42:59.405Z,3.30
2018-12-09T10:45:27.861Z,2.77
2018-12-09T10:47:56.532Z,3.07
2018-12-09T10:50:25.554Z,6.57
2018-12-09T10:52:54.080Z,4.50
2018-12-09T10:55:22.643Z,6.57
2018-12-09T10:57:51.061Z,4.80
2018-12-09T11:00:24.781Z,5.97
2018-12-09T11:02:53.250Z,3.93
2018-12-09T11:05:21.721Z,4.03
2018-12-09T11:07:50.215Z,13.60
2018-12-09T11:10:18.764Z,2.20
2018-12-09T11:12:47.272Z,2.10
2018-12-09T11:15:15.732Z,1.83
2018-12-09T11:17:44.172Z,5.93
2018-12-09T11:20:12.629Z,3.13
2018-12-09T11:22:42.919Z,3.13
2018-12-09T11:25:11.588Z,2.80
2018-12-09T11:27:40.059Z,2.37
2018-12-09T11:30:09.252Z,2.40
2018-12-09T11:32:37.735Z,4.87
2018-12-09T11:35:06.635Z,5.93
2018-12-09T11:37:35.558Z,9.23
2018-12-09T11:40:05.265Z,2.73
2018-12-09T11:42:33.749Z,2.30
2018-12-09T11:45:02.183Z,4.73
2018-12-09T11:47:30.968Z,9.10
2018-12-09T11:49:59.428Z,2.10
2018-12-09T11:52:28.031Z,6.43
2018-12-09T11:54:56.519Z,3.90
2018-12-09T11:57:25.682Z,2.97
2018-12-09T11:59:54.124Z,2.93
2018-12-09T12:02:22.695Z,2.00
2018-12-09T12:04:51.137Z,2.83
2018-12-09T12:07:19.611Z,2.67
2018-12-09T12:09:48.087Z,7.17
2018-12-09T12:12:16.602Z,2.83
2018-12-09T12:14:45.194Z,2.87
2018-12-09T12:17:13.647Z,3.60
2018-12-09T12:19:42.279Z,3.47
2018-12-09T12:22:10.901Z,5.10
2018-12-09T12:24:39.417Z,1.80
2018-12-09T12:27:07.919Z,2.83
2018-12-09T12:29:36.345Z,3.70
2018-12-09T12:32:04.868Z,1.83
2018-12-09T12:34:33.317Z,1.97
2018-12-09T12:37:01.781Z,3.00
2018-12-09T12:39:30.371Z,2.80
2018-12-09T12:41:58.981Z,3.17
2018-12-09T12:44:28.159Z,3.07
2018-12-09T12:46:56.768Z,2.40
2018-12-09T12:49:25.630Z,2.10
2018-12-09T12:51:54.200Z,2.10
2018-12-09T12:54:22.776Z,2.40
2018-12-09T12:56:53.717Z,2.60
2018-12-09T12:59:38.479Z,2.07
2018-12-09T13:02:07.210Z,2.10
2018-12-09T13:04:39.661Z,2.00
2018-12-09T13:07:08.276Z,2.27
2018-12-09T13:09:37.293Z,1.87
2018-12-09T13:12:06.120Z,1.20
2018-12-09T13:14:34.671Z,1.70
2018-12-09T13:17:04.248Z,1.60
2018-12-09T13:19:32.958Z,1.53
2018-12-09T13:22:01.657Z,1.60
2018-12-09T13:24:30.327Z,2.13
2018-12-09T13:26:58.802Z,2.00
2018-12-09T13:29:27.375Z,1.40
2018-12-09T13:31:55.989Z,1.63
2018-12-09T13:34:24.770Z,2.00
2018-12-09T13:36:53.362Z,2.43
2018-12-09T13:39:21.898Z,2.37
2018-12-09T13:41:50.405Z,6.67
2018-12-09T13:44:19.118Z,5.43
2018-12-09T13:46:47.710Z,2.30
2018-12-09T13:49:16.310Z,2.73
2018-12-09T13:51:44.827Z,1.97
2018-12-09T13:54:13.471Z,1.98
2018-12-09T13:56:42.059Z,2.47
2018-12-09T13:59:10.544Z,1.80
2018-12-09T14:01:39.008Z,1.57
2018-12-09T14:04:07.494Z,1.80
2018-12-09T14:06:36.006Z,1.97
2018-12-09T14:09:06.615Z,2.47
2018-12-09T14:11:35.078Z,2.13
2018-12-09T14:14:03.684Z,1.87
2018-12-09T14:16:32.277Z,2.17
2018-12-09T14:19:01.895Z,1.60
2018-12-09T14:21:31.494Z,2.70
2018-12-09T14:24:00.037Z,2.00
2018-12-09T14:26:28.622Z,2.37
2018-12-09T14:28:58.734Z,2.20
2018-12-09T14:31:29.389Z,2.83
2018-12-09T14:33:58.389Z,4.00
2018-12-09T14:36:26.921Z,4.47
2018-12-09T14:38:55.407Z,5.87
2018-12-09T14:41:24.056Z,3.63
2018-12-09T14:43:52.508Z,2.70
2018-12-09T14:46:20.960Z,1.60
2018-12-09T14:48:50.444Z,2.73
2018-12-09T14:51:19.059Z,1.80
2018-12-09T14:53:47.505Z,1.33
2018-12-09T14:56:16.016Z,1.30
2018-12-09T14:58:44.525Z,1.30
2018-12-09T15:01:13.094Z,0.90
2018-12-09T15:03:41.650Z,1.20
2018-12-09T15:06:10.277Z,0.80
2018-12-09T15:08:38.832Z,1.20
2018-12-09T15:11:07.531Z,1.40
2018-12-09T15:13:36.026Z,1.13
2018-12-09T15:16:04.635Z,1.40
2018-12-09T15:18:33.115Z,0.90
2018-12-09T15:21:01.675Z,1.03
2018-12-09T15:23:30.201Z,1.27
2018-12-09T15:25:58.777Z,1.60
2018-12-09T15:28:27.307Z,1.40
2018-12-09T15:30:55.791Z,1.83
2018-12-09T15:33:24.948Z,1.70
2018-12-09T15:35:53.481Z,1.80
2018-12-09T15:38:22.088Z,4.23
2018-12-09T15:40:50.517Z,2.50
2018-12-09T15:43:18.956Z,1.90
2018-12-09T15:45:47.942Z,2.17
2018-12-09T15:48:16.434Z,2.10
2018-12-09T15:50:45.242Z,1.70
2018-12-09T15:53:13.968Z,1.90
2018-12-09T15:55:42.444Z,2.00
2018-12-09T15:58:10.999Z,1.53
2018-12-09T16:00:45.057Z,1.80
2018-12-09T16:03:13.750Z,1.50
2018-12-09T16:05:42.240Z,1.40
2018-12-09T16:08:11.217Z,2.20
2018-12-09T16:10:39.700Z,1.37
2018-12-09T16:13:08.195Z,1.40
2018-12-09T16:15:37.045Z,1.33
2018-12-09T16:18:06.169Z,2.00
2018-12-09T16:20:34.665Z,4.40
2018-12-09T16:23:03.315Z,1.97
2018-12-09T16:25:32.518Z,2.13
2018-12-09T16:28:01.026Z,2.47
2018-12-09T16:30:29.540Z,3.47
2018-12-09T16:32:58.110Z,3.60
2018-12-09T16:35:27.096Z,2.97
2018-12-09T16:37:55.687Z,4.40
2018-12-09T16:40:24.553Z,4.27
2018-12-09T16:42:53.019Z,4.37
2018-12-09T16:45:22.647Z,6.13
2018-12-09T16:47:51.131Z,3.73
2018-12-09T16:50:19.608Z,4.47
2018-12-09T16:52:48.130Z,3.87
2018-12-09T16:55:16.816Z,3.77
2018-12-09T16:57:45.405Z,3.43
2018-12-09T17:00:14.058Z,3.00
2018-12-09T17:02:42.598Z,3.50
2018-12-09T17:05:11.087Z,3.90
2018-12-09T17:07:42.353Z,3.20
2018-12-09T17:10:10.214Z,2.70
2018-12-09T17:12:38.774Z,2.40
2018-12-09T17:15:08.105Z,3.07
2018-12-09T17:17:36.863Z,4.10
2018-12-09T17:20:06.688Z,3.33
2018-12-09T17:22:35.429Z,3.33
2018-12-09T17:25:03.970Z,3.33
2018-12-09T17:27:32.553Z,3.00
2018-12-09T17:30:01.210Z,3.23
2018-12-09T17:32:29.659Z,4.10
2018-12-09T17:34:58.178Z,4.47
2018-12-09T17:37:26.666Z,4.83
2018-12-09T17:39:55.124Z,4.03
2018-12-09T17:42:23.633Z,3.77
2018-12-09T17:44:52.152Z,2.77
2018-12-09T17:47:20.637Z,3.03
2018-12-09T17:49:49.424Z,4.00
2018-12-09T17:52:17.886Z,4.07
2018-12-09T17:54:46.413Z,3.60
2018-12-09T17:57:14.892Z,3.53
2018-12-09T17:59:43.465Z,3.43
2018-12-09T18:02:13.027Z,3.33
2018-12-09T18:04:47.927Z,4.40
2018-12-09T18:07:16.480Z,3.70
2018-12-09T18:09:45.048Z,6.00
2018-12-09T18:12:13.674Z,6.03
2018-12-09T18:14:42.258Z,5.90
2018-12-09T18:17:10.795Z,4.20
2018-12-09T18:19:39.329Z,5.80
2018-12-09T18:22:07.920Z,4.30
2018-12-09T18:24:36.604Z,4.13
2018-12-09T18:27:05.124Z,3.03
2018-12-09T18:29:33.702Z,3.73
2018-12-09T18:32:03.438Z,4.53
2018-12-09T18:34:32.111Z,3.60
2018-12-09T18:37:01.075Z,4.13
2018-12-09T18:39:30.287Z,3.50
2018-12-09T18:41:58.846Z,5.33
2018-12-09T18:44:27.485Z,8.27
2018-12-09T18:46:56.039Z,4.17
2018-12-09T18:49:24.992Z,4.00
2018-12-09T18:51:53.540Z,6.03
2018-12-09T18:54:22.039Z,5.50
2018-12-09T18:56:51.251Z,5.70
2018-12-09T18:59:20.062Z,5.40
2018-12-09T19:01:49.523Z,4.57
2018-12-09T19:04:18.607Z,4.40
2018-12-09T19:06:47.155Z,5.23
2018-12-09T19:09:15.827Z,4.60
2018-12-09T19:11:45.250Z,5.43
2018-12-09T19:14:13.904Z,4.27
2018-12-09T19:16:42.615Z,4.80
2018-12-09T19:19:11.191Z,3.83
2018-12-09T19:21:39.726Z,3.97
2018-12-09T19:24:08.179Z,3.53
2018-12-09T19:26:36.910Z,4.40
2018-12-09T19:29:05.601Z,4.27
2018-12-09T19:31:34.662Z,5.20
2018-12-09T19:34:03.107Z,4.13
2018-12-09T19:36:32.028Z,4.23
2018-12-09T19:39:00.742Z,4.83
2018-12-09T19:41:29.329Z,6.10
2018-12-09T19:43:57.811Z,5.33
2018-12-09T19:46:26.385Z,4.67
2018-12-09T19:48:54.910Z,4.37
2018-12-09T19:51:23.586Z,3.90
2018-12-09T19:53:52.078Z,4.87
2018-12-09T19:56:20.533Z,4.23
2018-12-09T19:58:48.995Z,5.17
2018-12-09T20:01:18.645Z,4.47
2018-12-09T20:03:47.181Z,4.07
2018-12-09T20:06:15.765Z,4.33
2018-12-09T20:08:45.582Z,4.97
2018-12-09T20:11:15.514Z,4.47
2018-12-09T20:13:44.031Z,4.50
2018-12-09T20:16:12.749Z,3.57
2018-12-09T20:18:41.322Z,3.67
2018-12-09T20:21:09.956Z,3.17
2018-12-09T20:23:38.518Z,3.07
2018-12-09T20:26:07.115Z,3.67
2018-12-09T20:28:36.423Z,3.90
2018-12-09T20:31:04.904Z,3.67
2018-12-09T20:33:33.425Z,4.73
2018-12-09T20:36:01.930Z,5.57
2018-12-09T20:38:30.416Z,5.83
2018-12-09T20:40:58.926Z,5.30
2018-12-09T20:43:28.281Z,5.03
2018-12-09T20:45:56.964Z,4.70
2018-12-09T20:48:25.587Z,4.37
2018-12-09T20:50:54.072Z,4.80
2018-12-09T20:53:22.520Z,5.30
2018-12-09T20:55:51.050Z,5.07
2018-12-09T20:58:19.646Z,5.20
2018-12-09T21:00:48.171Z,3.87
2018-12-09T21:03:17.247Z,4.00
2018-12-09T21:05:45.870Z,4.67
2018-12-09T21:08:14.420Z,3.80
2018-12-09T21:10:42.924Z,8.03
2018-12-09T21:13:12.004Z,6.60
2018-12-09T21:15:40.558Z,4.07
2018-12-09T21:18:09.081Z,4.00
2018-12-09T21:20:37.655Z,4.47
2018-12-09T21:23:06.250Z,3.67
2018-12-09T21:25:34.847Z,3.53
2018-12-09T21:28:03.567Z,4.43
2018-12-09T21:30:32.085Z,3.73
2018-12-09T21:33:00.999Z,4.73
2018-12-09T21:35:29.535Z,4.20
2018-12-09T21:37:57.999Z,4.00
2018-12-09T21:40:26.634Z,2.80
2018-12-09T21:42:55.418Z,3.03
2018-12-09T21:45:24.467Z,2.70
2018-12-09T21:47:53.054Z,3.73
2018-12-09T21:50:21.737Z,3.30
2018-12-09T21:52:50.542Z,3.17
2018-12-09T21:55:19.215Z,2.93
2018-12-09T21:57:47.727Z,3.47
2018-12-09T22:00:16.449Z,3.67
2018-12-09T22:02:44.960Z,3.47
2018-12-09T22:05:13.461Z,3.33
2018-12-09T22:07:43.493Z,3.57
2018-12-09T22:10:12.708Z,3.30
2018-12-09T22:12:41.630Z,2.87
2018-12-09T22:15:10.257Z,2.53
2018-12-09T22:17:38.749Z,2.30
2018-12-09T22:20:07.278Z,2.80
2018-12-09T22:22:36.106Z,2.63
2018-12-09T22:25:04.838Z,2.40
2018-12-09T22:27:33.406Z,2.80
2018-12-09T22:30:01.917Z,2.57
2018-12-09T22:32:30.420Z,3.40
2018-12-09T22:34:59.589Z,3.13
2018-12-09T22:37:28.151Z,3.93
2018-12-09T22:39:56.646Z,2.60
2018-12-09T22:42:25.105Z,3.70
2018-12-09T22:44:53.594Z,2.93
2018-12-09T22:47:22.070Z,3.63
2018-12-09T22:49:50.603Z,4.40
2018-12-09T22:52:19.196Z,3.67
2018-12-09T22:54:47.873Z,3.43
2018-12-09T22:57:16.752Z,3.97
2018-12-09T22:59:45.480Z,3.27
2018-12-09T23:02:19.661Z,4.23
2018-12-09T23:04:48.748Z,3.07
2018-12-09T23:07:22.641Z,3.50
2018-12-09T23:09:51.150Z,3.40
2018-12-09T23:12:19.855Z,3.47
2018-12-09T23:14:48.567Z,3.63
2018-12-09T23:17:17.220Z,3.47
2018-12-09T23:19:45.791Z,3.93
2018-12-09T23:22:14.289Z,3.20
2018-12-09T23:24:42.860Z,3.13
2018-12-09T23:27:11.318Z,3.83
2018-12-09T23:29:39.829Z,3.10
2018-12-09T23:32:08.439Z,2.97
2018-12-09T23:34:37.034Z,3.20
2018-12-09T23:37:05.612Z,4.10
2018-12-09T23:39:34.686Z,3.67
2018-12-09T23:42:03.195Z,3.20
2018-12-09T23:44:31.828Z,3.13
2018-12-09T23:47:00.459Z,3.07
2018-12-09T23:49:28.968Z,4.37
2018-12-09T23:51:57.554Z,3.40
2018-12-09T23:54:26.030Z,4.63
2018-12-09T23:56:54.740Z,2.80
2018-12-09T23:59:23.300Z,4.00
